Time;durP1;ratioP1;P1;durP2;ratioP2;P2;SDS_P1;SDS_P2;PMS_P1;PMS_P2;Temp;Humidity;BMP_temperature;BMP_pressure;BME280_temperature;BME280_humidity;BME280_pressure;Samples;Min_cycle;Max_cycle;Signal;HPM_P1;HPM_P2
2023/07/23 00:00:17;;;;;;;4.60;3.40;;;21.40;94.60;;;;;;5055205;28;20493;-73
2023/07/23 00:02:43;;;;;;;6.03;4.03;;;21.30;94.60;;;;;;5050180;28;20383;-70
2023/07/23 00:05:08;;;;;;;5.18;2.90;;;21.30;94.70;;;;;;5035892;28;20056;-70
2023/07/23 00:07:34;;;;;;;4.95;3.63;;;21.30;94.60;;;;;;5038492;28;20041;-71
2023/07/23 00:10:00;;;;;;;5.38;3.53;;;21.20;94.60;;;;;;5053224;28;20064;-71
2023/07/23 00:12:25;;;;;;;4.82;3.60;;;21.20;94.50;;;;;;5055498;28;20036;-71
2023/07/23 00:14:51;;;;;;;7.00;3.67;;;21.20;94.60;;;;;;5054221;28;20020;-70
2023/07/23 00:17:16;;;;;;;4.53;3.25;;;21.20;94.50;;;;;;5054723;28;20032;-73
2023/07/23 00:19:42;;;;;;;5.60;3.42;;;21.20;94.60;;;;;;5055287;28;20040;-73
2023/07/23 00:22:07;;;;;;;6.32;3.53;;;21.20;94.50;;;;;;5047811;28;20025;-72
2023/07/23 00:24:33;;;;;;;5.38;3.30;;;21.20;94.50;;;;;;5034219;28;20026;-71
2023/07/23 00:26:58;;;;;;;5.90;3.08;;;21.20;94.70;;;;;;5050561;28;20043;-71
2023/07/23 00:29:24;;;;;;;7.88;3.72;;;21.10;94.70;;;;;;5044660;28;20382;-72
2023/07/23 00:31:49;;;;;;;7.20;3.15;;;21.10;94.80;;;;;;5034946;28;20390;-72
2023/07/23 00:34:15;;;;;;;5.95;3.20;;;21.10;94.80;;;;;;5033068;28;20032;-73
2023/07/23 00:36:40;;;;;;;6.40;3.45;;;21.00;94.70;;;;;;5035154;28;20026;-71
2023/07/23 00:39:06;;;;;;;4.50;3.10;;;21.00;94.70;;;;;;5017460;28;20036;-74
2023/07/23 00:41:32;;;;;;;6.60;3.38;;;21.00;94.70;;;;;;5017373;28;20386;-74
2023/07/23 00:43:58;;;;;;;5.78;3.20;;;21.10;94.60;;;;;;5034693;28;20040;-73
2023/07/23 00:46:24;;;;;;;5.88;3.45;;;21.00;94.70;;;;;;5036135;28;20475;-73
2023/07/23 00:48:50;;;;;;;6.20;3.22;;;21.00;94.70;;;;;;5016719;28;20087;-71
2023/07/23 00:51:16;;;;;;;9.00;3.38;;;21.00;94.70;;;;;;5034799;28;20031;-73
2023/07/23 00:53:41;;;;;;;5.82;3.25;;;21.00;94.70;;;;;;5016968;28;20041;-73
2023/07/23 00:56:07;;;;;;;6.57;3.45;;;21.00;94.60;;;;;;5035092;28;20144;-72
2023/07/23 00:58:33;;;;;;;7.90;3.40;;;21.00;94.60;;;;;;5034471;28;20475;-73
2023/07/23 01:01:00;;;;;;;8.43;3.17;;;20.90;94.60;;;;;;5034890;28;20027;-71
2023/07/23 01:03:25;;;;;;;4.35;3.30;;;20.90;94.70;;;;;;5034880;28;20482;-74
2023/07/23 01:05:55;;;;;;;5.22;3.03;;;20.90;94.60;;;;;;5034474;28;20092;-71
2023/07/23 01:08:22;;;;;;;7.65;3.17;;;20.90;94.60;;;;;;5051918;28;20604;-71
2023/07/23 01:10:48;;;;;;;9.50;3.17;;;20.90;94.60;;;;;;5054045;28;20060;-71
2023/07/23 01:13:15;;;;;;;3.45;2.85;;;21.00;94.70;;;;;;5054254;28;20033;-73
2023/07/23 01:15:40;;;;;;;5.95;3.17;;;20.90;94.70;;;;;;5054363;28;20025;-73
2023/07/23 01:18:06;;;;;;;7.00;3.58;;;20.90;94.70;;;;;;5054402;28;20075;-72
2023/07/23 01:20:32;;;;;;;8.55;3.05;;;20.80;94.70;;;;;;5054432;28;20022;-72
2023/07/23 01:22:58;;;;;;;6.10;3.33;;;20.80;94.70;;;;;;5054383;28;20050;-73
2023/07/23 01:25:23;;;;;;;4.78;3.50;;;20.80;94.70;;;;;;5043270;28;20057;-71
2023/07/23 01:27:49;;;;;;;4.40;3.15;;;20.80;94.50;;;;;;5053041;28;20040;-71
2023/07/23 01:30:14;;;;;;;6.22;3.10;;;20.90;94.50;;;;;;5037180;28;20517;-73
2023/07/23 01:32:41;;;;;;;6.72;3.00;;;20.80;94.50;;;;;;5053095;28;20028;-74
2023/07/23 01:35:11;;;;;;;5.35;3.42;;;20.80;94.60;;;;;;5054075;28;20028;-72
2023/07/23 01:37:36;;;;;;;5.13;3.50;;;20.80;94.50;;;;;;5054136;28;20025;-74
2023/07/23 01:40:02;;;;;;;7.25;3.10;;;20.80;94.40;;;;;;5053985;28;20017;-71
2023/07/23 01:42:28;;;;;;;6.63;3.35;;;20.80;94.30;;;;;;5053604;28;20032;-72
2023/07/23 01:44:53;;;;;;;4.82;3.10;;;20.90;94.10;;;;;;5053740;28;20029;-74
2023/07/23 01:47:19;;;;;;;6.45;3.33;;;20.90;94.00;;;;;;5053833;28;20037;-73
2023/07/23 01:49:45;;;;;;;5.10;3.15;;;20.90;93.90;;;;;;5053776;28;20147;-74
2023/07/23 01:52:10;;;;;;;4.53;3.45;;;21.00;93.60;;;;;;5053763;28;20044;-71
2023/07/23 01:54:36;;;;;;;6.88;3.50;;;21.00;93.30;;;;;;5036578;28;20029;-74
2023/07/23 01:57:04;;;;;;;7.32;3.38;;;21.00;93.20;;;;;;5033560;28;20045;-74
2023/07/23 01:59:30;;;;;;;4.38;2.70;;;20.90;93.30;;;;;;5015675;28;20030;-71
2023/07/23 02:01:55;;;;;;;4.95;2.95;;;21.00;93.00;;;;;;5033520;28;20040;-74
2023/07/23 02:04:21;;;;;;;7.28;3.08;;;21.00;92.80;;;;;;5046811;28;20033;-73
2023/07/23 02:06:46;;;;;;;6.75;3.10;;;20.90;92.60;;;;;;5033519;28;20034;-72
2023/07/23 02:09:12;;;;;;;5.15;2.92;;;21.00;92.50;;;;;;5033610;28;20491;-71
2023/07/23 02:11:37;;;;;;;4.65;2.90;;;21.00;92.40;;;;;;5033193;28;20513;-72
2023/07/23 02:14:03;;;;;;;6.80;3.33;;;21.00;92.20;;;;;;5033477;28;20036;-71
2023/07/23 02:16:28;;;;;;;5.53;3.28;;;21.00;92.10;;;;;;5033266;28;20018;-71
2023/07/23 02:18:55;;;;;;;7.13;3.30;;;21.00;92.00;;;;;;5037394;28;20029;-73
2023/07/23 02:21:20;;;;;;;6.25;2.90;;;21.00;92.00;;;;;;5051912;28;20048;-71
2023/07/23 02:23:46;;;;;;;10.32;4.03;;;21.00;91.90;;;;;;5052834;28;20021;-71
2023/07/23 02:26:11;;;;;;;4.18;2.70;;;21.00;91.90;;;;;;5052908;28;20382;-71
2023/07/23 02:28:42;;;;;;;7.60;3.05;;;21.00;91.90;;;;;;5053215;28;20474;-74
2023/07/23 02:31:08;;;;;;;3.35;2.67;;;21.00;91.80;;;;;;5053190;28;20017;-71
2023/07/23 02:33:33;;;;;;;7.72;3.20;;;21.00;91.70;;;;;;5053118;28;20021;-71
2023/07/23 02:35:59;;;;;;;4.40;2.58;;;21.00;91.50;;;;;;5052920;28;20025;-71
2023/07/23 02:38:24;;;;;;;3.88;2.58;;;21.00;91.50;;;;;;5053212;28;20067;-71
2023/07/23 02:40:58;;;;;;;7.32;3.10;;;21.00;91.50;;;;;;5052601;28;20075;-74
2023/07/23 02:43:24;;;;;;;6.72;2.83;;;21.00;91.50;;;;;;5053365;28;20033;-73
2023/07/23 02:45:49;;;;;;;4.72;3.10;;;20.90;91.50;;;;;;5052780;28;20055;-73
2023/07/23 02:48:15;;;;;;;6.30;3.00;;;20.90;91.50;;;;;;5035131;28;20184;-74
2023/07/23 02:50:41;;;;;;;5.03;2.60;;;20.90;91.40;;;;;;5033103;28;20367;-74
2023/07/23 02:53:07;;;;;;;7.05;3.00;;;21.00;91.30;;;;;;5032533;28;20116;-71
2023/07/23 02:55:33;;;;;;;6.03;3.42;;;20.90;91.20;;;;;;5033176;28;20204;-72
2023/07/23 02:58:00;;;;;;;5.32;2.92;;;20.90;91.20;;;;;;5032821;28;20033;-74
2023/07/23 03:00:28;;;;;;;7.93;3.15;;;20.90;91.20;;;;;;5033115;28;20021;-71
2023/07/23 03:02:54;;;;;;;8.68;3.22;;;20.90;91.20;;;;;;5032647;28;20067;-73
2023/07/23 03:05:20;;;;;;;7.28;3.17;;;20.90;91.20;;;;;;5033131;28;20018;-74
2023/07/23 03:07:46;;;;;;;4.60;3.05;;;20.90;91.20;;;;;;5014716;28;20087;-73
2023/07/23 03:10:11;;;;;;;5.57;2.90;;;20.90;91.20;;;;;;5032973;28;20030;-72
2023/07/23 03:12:37;;;;;;;7.97;3.20;;;20.90;91.20;;;;;;5035228;28;20025;-72
2023/07/23 03:15:03;;;;;;;6.57;3.05;;;20.80;91.20;;;;;;5037056;28;20029;-73
2023/07/23 03:17:28;;;;;;;5.45;3.00;;;20.90;91.10;;;;;;5050250;28;20025;-73
2023/07/23 03:19:54;;;;;;;7.50;3.15;;;20.90;91.00;;;;;;5056362;28;20116;-72
2023/07/23 03:22:20;;;;;;;6.35;3.28;;;20.90;91.00;;;;;;5038461;28;20128;-72
2023/07/23 03:24:45;;;;;;;7.97;2.78;;;20.90;90.90;;;;;;5056564;28;20040;-72
2023/07/23 03:27:11;;;;;;;6.47;3.03;;;20.90;90.90;;;;;;5056243;28;20044;-71
2023/07/23 03:29:37;;;;;;;6.95;3.13;;;20.90;90.80;;;;;;5056573;28;20025;-72
2023/07/23 03:32:03;;;;;;;2.88;2.47;;;20.80;90.80;;;;;;5056397;28;20029;-73
2023/07/23 03:34:28;;;;;;;4.80;2.95;;;20.80;90.70;;;;;;5056372;28;20063;-71
2023/07/23 03:36:54;;;;;;;4.28;2.67;;;20.80;90.80;;;;;;5055958;28;20029;-73
2023/07/23 03:39:19;;;;;;;9.13;2.85;;;20.80;90.70;;;;;;5056388;28;20484;-74
2023/07/23 03:41:49;;;;;;;5.82;2.70;;;20.80;90.60;;;;;;5038239;28;20036;-72
2023/07/23 03:44:15;;;;;;;5.93;2.83;;;20.80;90.60;;;;;;5056078;28;20021;-71
2023/07/23 03:46:44;;;;;;;4.95;3.03;;;20.80;90.50;;;;;;5049097;28;20048;-74
2023/07/23 03:49:10;;;;;;;3.38;2.53;;;20.90;91.00;;;;;;5036109;28;20083;-71
2023/07/23 03:51:36;;;;;;;6.82;2.97;;;20.90;90.50;;;;;;5035964;28;20025;-74
2023/07/23 03:54:02;;;;;;;6.43;3.00;;;20.90;90.30;;;;;;5018221;28;20033;-71
2023/07/23 03:56:27;;;;;;;10.30;2.85;;;20.80;90.20;;;;;;5036150;28;20026;-73
2023/07/23 03:58:53;;;;;;;4.63;2.65;;;20.90;90.30;;;;;;5035923;28;20022;-74
2023/07/23 04:01:18;;;;;;;7.15;2.75;;;20.90;90.20;;;;;;5035933;28;20033;-74
2023/07/23 04:03:44;;;;;;;6.90;2.60;;;20.80;90.20;;;;;;5018268;28;20017;-72
2023/07/23 04:06:10;;;;;;;4.95;3.47;;;20.80;90.20;;;;;;5035719;28;20481;-73
2023/07/23 04:08:35;;;;;;;4.88;2.90;;;20.80;90.20;;;;;;5035670;28;20033;-74
2023/07/23 04:11:01;;;;;;;6.85;2.65;;;20.70;90.20;;;;;;5035806;28;20474;-72
2023/07/23 04:13:29;;;;;;;10.75;2.80;;;20.80;90.40;;;;;;5035633;28;20103;-72
2023/07/23 04:15:54;;;;;;;5.35;2.60;;;20.80;90.10;;;;;;5035657;28;20029;-75
2023/07/23 04:18:20;;;;;;;5.97;2.65;;;20.80;90.00;;;;;;5055536;28;20071;-71
2023/07/23 04:20:45;;;;;;;3.58;2.72;;;20.70;90.00;;;;;;5040664;28;20100;-71
2023/07/23 04:23:11;;;;;;;6.10;2.65;;;20.80;90.00;;;;;;5035111;28;20367;-74
2023/07/23 04:25:36;;;;;;;4.88;3.03;;;20.80;90.00;;;;;;5035607;28;20029;-71
2023/07/23 04:28:03;;;;;;;6.40;2.67;;;20.70;90.00;;;;;;5035384;28;20029;-71
2023/07/23 04:30:30;;;;;;;5.47;3.05;;;20.70;90.00;;;;;;5035510;28;20487;-73
2023/07/23 04:32:55;;;;;;;4.82;2.67;;;20.70;90.00;;;;;;5017481;28;20018;-72
2023/07/23 04:35:21;;;;;;;5.07;2.92;;;20.80;90.20;;;;;;5034996;28;20116;-71
2023/07/23 04:37:47;;;;;;;7.60;3.20;;;20.80;90.20;;;;;;5035300;28;20034;-71
2023/07/23 04:40:12;;;;;;;5.85;3.10;;;20.80;90.30;;;;;;5035143;28;20021;-71
2023/07/23 04:42:38;;;;;;;4.93;3.40;;;20.80;90.90;;;;;;5035346;28;20041;-73
2023/07/23 04:45:04;;;;;;;3.83;2.70;;;20.80;91.50;;;;;;5035035;28;20028;-74
2023/07/23 04:47:30;;;;;;;3.65;2.92;;;20.70;91.60;;;;;;5050442;28;20134;-74
2023/07/23 04:49:57;;;;;;;5.85;3.40;;;20.80;91.60;;;;;;5054236;28;20533;-72
2023/07/23 04:52:23;;;;;;;10.05;3.70;;;20.70;91.90;;;;;;5044786;28;20057;-68
2023/07/23 04:54:48;;;;;;;5.07;3.65;;;20.70;92.00;;;;;;5044556;28;20059;-71
2023/07/23 04:57:14;;;;;;;6.28;4.72;;;20.70;92.10;;;;;;5035089;28;20220;-70
2023/07/23 04:59:40;;;;;;;6.30;2.95;;;20.60;92.30;;;;;;5040800;28;20052;-72
2023/07/23 05:02:05;;;;;;;5.57;4.20;;;20.70;92.20;;;;;;5055484;28;20028;-73
2023/07/23 05:04:31;;;;;;;5.78;3.40;;;20.60;92.30;;;;;;5045697;28;20094;-71
2023/07/23 05:06:56;;;;;;;4.10;3.17;;;20.60;92.50;;;;;;5052247;28;20021;-70
2023/07/23 05:09:22;;;;;;;7.90;3.40;;;20.60;92.70;;;;;;5053968;28;20053;-73
2023/07/23 05:11:48;;;;;;;5.05;3.20;;;20.60;92.80;;;;;;5042643;28;20025;-70
2023/07/23 05:14:15;;;;;;;3.30;2.83;;;20.50;93.10;;;;;;5049981;28;20067;-70
2023/07/23 05:16:40;;;;;;;5.13;3.78;;;20.50;93.20;;;;;;5042607;28;20033;-73
2023/07/23 05:19:06;;;;;;;8.25;3.00;;;20.50;93.20;;;;;;5035626;28;20367;-73
2023/07/23 05:21:34;;;;;;;6.05;3.40;;;20.50;93.30;;;;;;5054441;28;20029;-70
2023/07/23 05:24:01;;;;;;;4.82;3.53;;;20.50;93.40;;;;;;5039886;28;20073;-73
2023/07/23 05:26:26;;;;;;;4.75;3.60;;;20.50;93.20;;;;;;5054036;28;20470;-71
2023/07/23 05:28:52;;;;;;;6.00;3.10;;;20.50;93.20;;;;;;5035628;28;20052;-74
2023/07/23 05:31:17;;;;;;;6.93;2.97;;;20.50;93.00;;;;;;5048737;28;20021;-74
2023/07/23 05:33:43;;;;;;;7.18;3.33;;;20.60;92.90;;;;;;5036439;28;20033;-73
2023/07/23 05:36:09;;;;;;;4.38;3.33;;;20.50;93.00;;;;;;5051786;28;20028;-70
2023/07/23 05:38:34;;;;;;;7.22;3.88;;;20.50;93.10;;;;;;5054008;28;20040;-74
2023/07/23 05:41:00;;;;;;;6.18;3.22;;;20.50;93.20;;;;;;5052782;28;20021;-74
2023/07/23 05:43:26;;;;;;;3.75;3.40;;;20.50;93.10;;;;;;5040557;28;20466;-74
2023/07/23 05:45:51;;;;;;;6.50;3.58;;;20.50;93.00;;;;;;5045356;28;20474;-71
2023/07/23 05:48:17;;;;;;;5.82;2.85;;;20.50;93.10;;;;;;5047112;28;20033;-71
2023/07/23 05:50:43;;;;;;;5.43;3.13;;;20.50;93.00;;;;;;5047131;28;20489;-71
2023/07/23 05:53:10;;;;;;;5.22;3.50;;;20.50;92.90;;;;;;5052859;28;20437;-72
2023/07/23 05:55:36;;;;;;;8.23;4.07;;;20.50;93.00;;;;;;5039444;28;20029;-74
2023/07/23 05:58:01;;;;;;;5.05;4.13;;;20.50;93.00;;;;;;5037276;28;20569;-74
2023/07/23 06:00:27;;;;;;;4.13;3.53;;;20.50;93.00;;;;;;5072557;28;20111;-71
2023/07/23 06:02:52;;;;;;;5.38;3.83;;;20.60;92.90;;;;;;5067190;28;20029;-74
2023/07/23 06:05:18;;;;;;;4.70;3.45;;;20.50;93.00;;;;;;5068601;28;20229;-73
2023/07/23 06:07:43;;;;;;;4.72;3.85;;;20.50;93.10;;;;;;5073347;28;20039;-73
2023/07/23 06:10:09;;;;;;;4.95;3.60;;;20.60;93.10;;;;;;5055452;28;20035;-73
2023/07/23 06:12:34;;;;;;;5.80;3.47;;;20.60;93.40;;;;;;5062845;28;20028;-74
2023/07/23 06:15:00;;;;;;;5.10;3.58;;;20.50;93.80;;;;;;5058477;28;20037;-69
2023/07/23 06:17:26;;;;;;;5.63;3.20;;;20.50;93.50;;;;;;5049699;28;20390;-70
2023/07/23 06:19:51;;;;;;;4.82;3.40;;;20.60;93.20;;;;;;5039025;28;20100;-74
2023/07/23 06:22:17;;;;;;;7.10;3.90;;;20.70;93.00;;;;;;5047003;28;20108;-70
2023/07/23 06:24:42;;;;;;;3.95;3.20;;;20.80;93.10;;;;;;5033060;28;20056;-74
2023/07/23 06:27:08;;;;;;;5.03;3.50;;;20.80;93.00;;;;;;5043619;28;20029;-69
2023/07/23 06:29:34;;;;;;;5.40;3.78;;;20.80;92.90;;;;;;5037940;28;20025;-74
2023/07/23 06:31:59;;;;;;;5.22;3.70;;;20.90;93.00;;;;;;5014768;28;20021;-73
2023/07/23 06:34:25;;;;;;;5.82;3.40;;;20.90;93.10;;;;;;5043298;28;20056;-72
2023/07/23 06:36:50;;;;;;;8.02;4.15;;;20.90;92.90;;;;;;5039250;28;20028;-73
2023/07/23 06:39:16;;;;;;;6.05;4.45;;;20.90;93.00;;;;;;5050580;28;20061;-68
2023/07/23 06:41:41;;;;;;;6.03;3.58;;;20.90;93.10;;;;;;5045704;28;20029;-69
2023/07/23 06:44:07;;;;;;;8.07;4.22;;;21.00;92.90;;;;;;5042161;28;20583;-70
2023/07/23 06:46:33;;;;;;;6.38;4.10;;;21.00;93.10;;;;;;5046860;28;20026;-70
2023/07/23 06:48:58;;;;;;;4.93;3.63;;;21.00;93.20;;;;;;5051356;28;20401;-69
2023/07/23 06:51:25;;;;;;;4.50;4.10;;;21.00;93.30;;;;;;5038342;28;20078;-72
2023/07/23 06:53:51;;;;;;;4.13;3.72;;;21.00;93.20;;;;;;5038027;28;20033;-68
2023/07/23 06:56:17;;;;;;;6.10;3.85;;;21.00;93.20;;;;;;5035993;28;20021;-69
2023/07/23 06:58:43;;;;;;;5.13;4.05;;;21.00;93.40;;;;;;5040577;28;20494;-68
2023/07/23 07:01:09;;;;;;;4.85;4.00;;;21.00;93.70;;;;;;5042414;28;20029;-69
2023/07/23 07:03:35;;;;;;;5.60;3.95;;;21.00;93.50;;;;;;5030792;28;20022;-68
2023/07/23 07:06:01;;;;;;;4.93;4.40;;;21.10;93.50;;;;;;5054302;28;20025;-69
2023/07/23 07:08:28;;;;;;;4.60;3.65;;;21.10;93.50;;;;;;5045194;28;20063;-72
2023/07/23 07:10:58;;;;;;;4.85;3.78;;;21.10;93.50;;;;;;5032978;28;20021;-73
2023/07/23 07:13:24;;;;;;;4.90;4.00;;;21.10;93.60;;;;;;5053318;28;20052;-72
2023/07/23 07:15:49;;;;;;;6.40;4.10;;;21.10;93.70;;;;;;5041864;28;20029;-73
2023/07/23 07:18:15;;;;;;;5.10;4.00;;;21.10;93.80;;;;;;5037523;28;20100;-72
2023/07/23 07:20:40;;;;;;;4.50;4.07;;;21.10;93.80;;;;;;5040655;28;20482;-70
2023/07/23 07:23:06;;;;;;;5.40;4.35;;;21.10;93.80;;;;;;5031344;28;20390;-72
2023/07/23 07:25:32;;;;;;;5.65;3.75;;;21.10;93.90;;;;;;5044726;28;20409;-72
2023/07/23 07:27:57;;;;;;;5.47;3.97;;;21.10;93.90;;;;;;5034820;28;20100;-74
2023/07/23 07:30:23;;;;;;;5.13;3.75;;;21.10;94.00;;;;;;5050861;28;20021;-71
2023/07/23 07:32:48;;;;;;;6.70;4.70;;;21.10;93.90;;;;;;5052841;28;20473;-71
2023/07/23 07:35:14;;;;;;;9.07;4.60;;;21.10;94.00;;;;;;5051858;28;20052;-71
2023/07/23 07:37:39;;;;;;;5.05;4.18;;;21.20;94.10;;;;;;5055183;28;20029;-68
2023/07/23 07:40:05;;;;;;;5.95;4.53;;;21.20;93.90;;;;;;5056232;28;20032;-69
2023/07/23 07:42:31;;;;;;;5.70;4.25;;;21.20;94.10;;;;;;5052148;28;20039;-72
2023/07/23 07:44:57;;;;;;;7.80;4.65;;;21.10;94.10;;;;;;5052888;28;20025;-70
2023/07/23 07:47:22;;;;;;;5.35;4.35;;;21.20;94.20;;;;;;5057315;28;20041;-72
2023/07/23 07:49:52;;;;;;;5.45;4.15;;;21.20;94.20;;;;;;5051492;28;20024;-72
2023/07/23 07:52:17;;;;;;;5.78;4.20;;;21.20;94.20;;;;;;5041398;28;20036;-69
2023/07/23 07:54:43;;;;;;;9.98;5.13;;;21.20;94.20;;;;;;5051426;28;20044;-73
2023/07/23 07:57:09;;;;;;;5.60;4.80;;;21.10;94.30;;;;;;5069434;28;20078;-70
2023/07/23 07:59:35;;;;;;;5.07;4.20;;;21.10;94.40;;;;;;5057428;28;20033;-73
2023/07/23 08:02:01;;;;;;;7.43;4.68;;;21.00;94.60;;;;;;5066672;28;20089;-69
2023/07/23 08:04:27;;;;;;;4.90;4.40;;;21.00;94.70;;;;;;5045408;28;20465;-70
2023/07/23 08:06:53;;;;;;;6.38;4.53;;;21.00;94.80;;;;;;5055621;28;20406;-71
2023/07/23 08:09:21;;;;;;;5.53;4.60;;;21.10;94.80;;;;;;5038275;28;20521;-73
2023/07/23 08:11:47;;;;;;;5.53;3.90;;;21.10;94.60;;;;;;5040826;28;20441;-72
2023/07/23 08:14:14;;;;;;;4.97;4.40;;;21.10;94.50;;;;;;5052681;28;20108;-68
2023/07/23 08:16:40;;;;;;;6.32;4.00;;;21.10;94.60;;;;;;5050058;28;20120;-73
2023/07/23 08:19:06;;;;;;;6.55;4.20;;;21.10;94.50;;;;;;5043796;28;20022;-70
2023/07/23 08:21:32;;;;;;;5.70;4.18;;;21.10;94.70;;;;;;5039411;28;20048;-71
2023/07/23 08:23:58;;;;;;;5.10;4.15;;;21.10;94.70;;;;;;5042746;28;20482;-70
2023/07/23 08:26:27;;;;;;;7.55;4.55;;;21.20;94.80;;;;;;5058245;28;20029;-69
2023/07/23 08:28:58;;;;;;;8.55;4.40;;;21.10;94.80;;;;;;5036314;28;20026;-70
2023/07/23 08:31:24;;;;;;;6.88;4.55;;;21.10;95.00;;;;;;5039719;28;20028;-74
2023/07/23 08:33:52;;;;;;;7.80;4.90;;;21.10;95.20;;;;;;5060345;28;20104;-70
2023/07/23 08:36:18;;;;;;;6.35;4.22;;;21.20;95.10;;;;;;5054347;28;20029;-70
2023/07/23 08:38:44;;;;;;;12.85;4.68;;;21.20;95.20;;;;;;5041711;28;20032;-69
2023/07/23 08:41:31;;;;;;;6.10;4.38;;;21.20;95.10;;;;;;5054522;28;20025;-71
2023/07/23 08:44:22;;;;;;;6.88;4.75;;;21.10;95.10;;;;;;5051821;28;20041;-69
2023/07/23 08:46:47;;;;;;;4.65;4.15;;;21.20;95.20;;;;;;5047079;28;20036;-71
2023/07/23 08:49:17;;;;;;;6.35;4.15;;;21.20;95.10;;;;;;5051051;28;20052;-68
2023/07/23 08:51:45;;;;;;;12.88;4.40;;;21.10;95.20;;;;;;5045420;28;20025;-69
2023/07/23 08:54:13;;;;;;;5.90;3.95;;;21.10;95.30;;;;;;5053142;28;20021;-68
2023/07/23 08:56:41;;;;;;;7.80;4.38;;;21.10;95.30;;;;;;5050459;28;20021;-68
2023/07/23 08:59:07;;;;;;;5.32;3.97;;;21.10;95.40;;;;;;5053098;28;20052;-68
2023/07/23 09:01:41;;;;;;;7.60;4.55;;;21.10;95.50;;;;;;5051002;28;20024;-70
2023/07/23 09:04:10;;;;;;;4.60;3.80;;;21.10;95.60;;;;;;5044987;28;20539;-69
2023/07/23 09:06:35;;;;;;;6.15;3.67;;;21.10;95.50;;;;;;5041637;28;20032;-69
2023/07/23 09:09:06;;;;;;;7.40;3.72;;;21.10;95.50;;;;;;5038789;28;20084;-71
2023/07/23 09:11:32;;;;;;;5.90;3.25;;;21.10;95.60;;;;;;5051197;28;20048;-68
2023/07/23 09:14:00;;;;;;;5.80;3.78;;;21.10;95.70;;;;;;5052409;28;20032;-72
2023/07/23 09:16:26;;;;;;;3.97;3.45;;;21.20;95.60;;;;;;5040129;28;20029;-71
2023/07/23 09:18:52;;;;;;;5.68;3.70;;;21.20;95.50;;;;;;5043330;28;20017;-71
2023/07/23 09:21:26;;;;;;;13.57;4.32;;;21.20;95.50;;;;;;5041217;28;20028;-72
2023/07/23 09:23:57;;;;;;;7.90;3.88;;;21.20;95.60;;;;;;5046478;28;20028;-71
2023/07/23 09:26:26;;;;;;;8.05;3.35;;;21.30;95.60;;;;;;5043864;28;20529;-71
2023/07/23 09:28:55;;;;;;;7.78;3.90;;;21.20;95.80;;;;;;5052360;28;20041;-73
2023/07/23 09:31:29;;;;;;;8.15;3.85;;;21.30;95.60;;;;;;5051909;28;20028;-72
2023/07/23 09:34:00;;;;;;;6.45;4.05;;;21.30;95.60;;;;;;5051295;28;20055;-70
2023/07/23 09:36:27;;;;;;;8.93;4.00;;;21.20;95.50;;;;;;5048964;28;20017;-73
2023/07/23 09:39:03;;;;;;;6.82;3.75;;;21.20;95.50;;;;;;5044112;28;20071;-72
2023/07/23 09:41:35;;;;;;;10.10;4.68;;;21.30;95.50;;;;;;5038744;28;20086;-70
2023/07/23 09:44:08;;;;;;;4.10;3.53;;;21.30;95.60;;;;;;5049249;28;20474;-68
2023/07/23 09:46:36;;;;;;;5.30;3.92;;;21.30;95.80;;;;;;5049903;28;20036;-69
2023/07/23 09:49:02;;;;;;;6.80;3.63;;;21.30;95.80;;;;;;5033662;28;20032;-69
2023/07/23 09:51:27;;;;;;;7.53;3.88;;;21.30;95.70;;;;;;5052355;28;20016;-69
2023/07/23 09:53:53;;;;;;;6.32;3.97;;;21.30;95.70;;;;;;5056206;28;20040;-68
2023/07/23 09:56:21;;;;;;;6.40;3.72;;;21.40;95.60;;;;;;5059812;28;20032;-68
2023/07/23 09:58:48;;;;;;;9.68;3.97;;;21.40;95.60;;;;;;5045097;28;20068;-69
2023/07/23 10:01:18;;;;;;;9.77;5.38;;;21.40;95.80;;;;;;5049171;28;20017;-69
2023/07/23 10:03:47;;;;;;;8.00;5.55;;;21.40;95.90;;;;;;5051231;28;20131;-71
2023/07/23 10:06:15;;;;;;;9.75;6.32;;;21.40;96.00;;;;;;5049814;28;20454;-69
2023/07/23 10:08:43;;;;;;;10.27;5.80;;;21.40;96.40;;;;;;5051216;28;20394;-68
2023/07/23 10:11:13;;;;;;;11.88;6.75;;;21.40;96.10;;;;;;5033048;28;20021;-72
2023/07/23 10:13:40;;;;;;;11.65;6.28;;;21.40;96.20;;;;;;5050276;28;20106;-68
2023/07/23 10:16:16;;;;;;;6.97;6.18;;;21.40;96.30;;;;;;5043980;28;21037;-67
2023/07/23 10:18:43;;;;;;;12.93;6.75;;;21.50;96.10;;;;;;5051109;28;20116;-70
2023/07/23 10:21:10;;;;;;;11.77;5.97;;;21.50;96.30;;;;;;5050023;28;20045;-69
2023/07/23 10:23:40;;;;;;;14.20;6.78;;;21.50;96.50;;;;;;5053162;28;20029;-66
2023/07/23 10:26:29;;;;;;;13.02;6.72;;;21.50;96.60;;;;;;5051534;28;20062;-67
2023/07/23 10:29:07;;;;;;;8.40;6.10;;;21.50;96.60;;;;;;5059519;28;20033;-67
2023/07/23 10:31:33;;;;;;;9.45;4.60;;;21.50;96.60;;;;;;5055482;28;20072;-68
2023/07/23 10:33:59;;;;;;;11.25;5.47;;;21.50;96.60;;;;;;5046345;28;20242;-70
2023/07/23 10:36:25;;;;;;;9.80;5.47;;;21.50;96.60;;;;;;5048755;28;20469;-70
2023/07/23 10:39:17;;;;;;;7.28;4.85;;;21.50;96.80;;;;;;5053214;28;20036;-70
2023/07/23 10:41:54;;;;;;;5.03;4.00;;;21.60;96.80;;;;;;5040701;28;20532;-70
2023/07/23 10:44:29;;;;;;;7.80;4.28;;;21.60;96.90;;;;;;5041773;28;20046;-69
2023/07/23 10:46:58;;;;;;;7.50;4.35;;;21.60;97.00;;;;;;5050346;28;20021;-70
2023/07/23 10:49:35;;;;;;;6.80;3.60;;;21.60;97.00;;;;;;5048888;28;20162;-70
2023/07/23 10:52:14;;;;;;;7.75;4.32;;;21.60;97.00;;;;;;5050077;28;20029;-66
2023/07/23 10:54:40;;;;;;;6.97;3.42;;;21.60;96.90;;;;;;5045627;28;20124;-71
2023/07/23 10:57:06;;;;;;;4.00;3.03;;;21.60;96.80;;;;;;5046300;28;20112;-67
2023/07/23 10:59:32;;;;;;;4.97;3.80;;;21.60;96.80;;;;;;5030922;28;20523;-67
2023/07/23 11:01:58;;;;;;;5.65;3.58;;;21.60;96.80;;;;;;5042219;28;20021;-71
2023/07/23 11:04:25;;;;;;;8.38;3.72;;;21.70;96.70;;;;;;5048165;28;20074;-66
2023/07/23 11:06:55;;;;;;;5.38;3.75;;;21.70;96.80;;;;;;5044298;28;20056;-68
2023/07/23 11:09:27;;;;;;;7.75;3.63;;;21.70;96.80;;;;;;5048869;28;20101;-68
2023/07/23 11:11:54;;;;;;;5.45;3.55;;;21.70;96.80;;;;;;5041106;28;20158;-70
2023/07/23 11:14:27;;;;;;;5.65;3.70;;;21.70;96.80;;;;;;5043587;28;20056;-69
2023/07/23 11:16:58;;;;;;;6.70;3.15;;;21.70;96.90;;;;;;5040246;28;20215;-68
2023/07/23 11:19:25;;;;;;;6.38;3.53;;;21.70;97.10;;;;;;5043517;28;20048;-67
2023/07/23 11:21:54;;;;;;;7.05;3.42;;;21.80;97.10;;;;;;5046868;28;20033;-67
2023/07/23 11:24:20;;;;;;;7.50;3.17;;;21.80;97.20;;;;;;5036949;28;20467;-69
2023/07/23 11:26:47;;;;;;;9.23;3.25;;;21.80;97.10;;;;;;5044324;28;20498;-67
2023/07/23 11:29:13;;;;;;;7.20;3.25;;;21.80;97.20;;;;;;5042609;28;20029;-70
2023/07/23 11:31:40;;;;;;;6.15;3.33;;;21.80;97.20;;;;;;5043790;28;20151;-67
2023/07/23 11:34:06;;;;;;;10.63;4.20;;;21.80;97.10;;;;;;5055307;28;20177;-68
2023/07/23 11:36:34;;;;;;;7.88;3.67;;;21.80;97.00;;;;;;5054766;28;20028;-70
2023/07/23 11:39:00;;;;;;;5.10;3.60;;;21.90;97.20;;;;;;5055651;28;20051;-67
2023/07/23 11:41:34;;;;;;;5.93;3.38;;;21.90;97.20;;;;;;5055459;28;20016;-67
2023/07/23 11:44:03;;;;;;;4.47;3.20;;;21.90;97.20;;;;;;5051420;28;20433;-70
2023/07/23 11:46:41;;;;;;;3.95;2.58;;;21.90;97.20;;;;;;5055335;28;20079;-69
2023/07/23 11:49:10;;;;;;;8.57;3.17;;;21.90;97.30;;;;;;5055786;28;20203;-66
2023/07/23 11:51:39;;;;;;;3.47;2.80;;;21.90;97.10;;;;;;5055675;28;20025;-68
2023/07/23 11:54:08;;;;;;;5.72;3.30;;;21.90;97.10;;;;;;5055706;28;20048;-67
2023/07/23 11:56:38;;;;;;;3.58;3.00;;;22.00;97.10;;;;;;5055829;28;20013;-68
2023/07/23 11:59:05;;;;;;;5.72;2.95;;;22.00;97.10;;;;;;5055944;28;20025;-64
2023/07/23 12:01:32;;;;;;;4.78;3.10;;;22.00;97.20;;;;;;5055968;28;20021;-68
2023/07/23 12:04:03;;;;;;;4.72;2.83;;;22.00;97.00;;;;;;5040225;28;20486;-69
2023/07/23 12:06:31;;;;;;;3.28;2.75;;;22.00;96.90;;;;;;5037961;28;20025;-68
2023/07/23 12:08:57;;;;;;;6.55;2.95;;;22.00;96.90;;;;;;5037649;28;20037;-69
2023/07/23 12:11:25;;;;;;;5.32;2.53;;;22.00;96.90;;;;;;5037836;28;20387;-68
2023/07/23 12:13:53;;;;;;;6.22;2.50;;;22.10;97.00;;;;;;5055563;28;20044;-67
2023/07/23 12:16:34;;;;;;;5.70;2.75;;;22.10;96.90;;;;;;5055793;28;20419;-68
2023/07/23 12:19:10;;;;;;;3.67;2.60;;;22.10;96.70;;;;;;5047736;28;20033;-68
2023/07/23 12:21:44;;;;;;;4.55;2.40;;;22.10;96.80;;;;;;5044093;28;20053;-68
2023/07/23 12:24:32;;;;;;;5.15;2.42;;;22.10;96.70;;;;;;5044711;28;20111;-67
2023/07/23 12:27:03;;;;;;;4.30;2.10;;;22.20;96.80;;;;;;5035510;28;20474;-67
2023/07/23 12:29:29;;;;;;;4.75;2.75;;;22.20;96.90;;;;;;5035279;28;20025;-68
2023/07/23 12:32:15;;;;;;;3.28;2.30;;;22.20;96.90;;;;;;5017203;28;20406;-67
2023/07/23 12:34:46;;;;;;;2.65;2.42;;;22.20;97.00;;;;;;5034451;28;20029;-68
2023/07/23 12:37:12;;;;;;;7.30;2.53;;;22.20;97.10;;;;;;5035435;28;20022;-67
2023/07/23 12:39:38;;;;;;;2.30;2.10;;;22.20;97.10;;;;;;5052635;28;20031;-68
2023/07/23 12:42:04;;;;;;;4.43;2.60;;;22.20;97.10;;;;;;5054854;28;20100;-68
2023/07/23 12:44:30;;;;;;;4.70;2.70;;;22.20;97.10;;;;;;5047870;28;20025;-68